sensor_id;sensor_type;location;lat;lon;timestamp;P1;durP1;ratioP1;P2;durP2;ratioP2
45620;SDS011;31345;51.522;10.702;2022-08-21T00:00:19;10.85;;;7.97;;
45620;SDS011;31345;51.522;10.702;2022-08-21T00:02:50;12.52;;;7.70;;
45620;SDS011;31345;51.522;10.702;2022-08-21T00:05:20;12.32;;;9.40;;
45620;SDS011;31345;51.522;10.702;2022-08-21T00:07:49;12.32;;;9.70;;
45620;SDS011;31345;51.522;10.702;2022-08-21T00:10:17;23.17;;;8.30;;
45620;SDS011;31345;51.522;10.702;2022-08-21T00:12:45;10.65;;;8.00;;
45620;SDS011;31345;51.522;10.702;2022-08-21T00:15:16;10.57;;;7.47;;
45620;SDS011;31345;51.522;10.702;2022-08-21T00:17:48;10.70;;;7.13;;
45620;SDS011;31345;51.522;10.702;2022-08-21T00:20:16;9.57;;;6.95;;
45620;SDS011;31345;51.522;10.702;2022-08-21T00:22:45;10.20;;;7.20;;
45620;SDS011;31345;51.522;10.702;2022-08-21T00:25:13;7.43;;;5.90;;
45620;SDS011;31345;51.522;10.702;2022-08-21T00:27:42;9.07;;;5.25;;
45620;SDS011;31345;51.522;10.702;2022-08-21T00:30:11;8.52;;;5.88;;
45620;SDS011;31345;51.522;10.702;2022-08-21T00:32:41;7.45;;;5.00;;
45620;SDS011;31345;51.522;10.702;2022-08-21T00:35:10;7.25;;;5.35;;
45620;SDS011;31345;51.522;10.702;2022-08-21T00:37:40;8.48;;;5.05;;
45620;SDS011;31345;51.522;10.702;2022-08-21T00:40:11;7.15;;;5.15;;
45620;SDS011;31345;51.522;10.702;2022-08-21T00:42:42;8.73;;;5.38;;
45620;SDS011;31345;51.522;10.702;2022-08-21T00:45:10;9.70;;;5.10;;
45620;SDS011;31345;51.522;10.702;2022-08-21T00:47:38;7.28;;;5.20;;
45620;SDS011;31345;51.522;10.702;2022-08-21T00:50:06;9.88;;;4.85;;
45620;SDS011;31345;51.522;10.702;2022-08-21T00:52:36;29.30;;;5.03;;
45620;SDS011;31345;51.522;10.702;2022-08-21T00:55:05;7.18;;;4.60;;
45620;SDS011;31345;51.522;10.702;2022-08-21T00:57:38;6.18;;;4.80;;
45620;SDS011;31345;51.522;10.702;2022-08-21T01:00:13;8.98;;;4.65;;
45620;SDS011;31345;51.522;10.702;2022-08-21T01:02:43;5.70;;;4.60;;
45620;SDS011;31345;51.522;10.702;2022-08-21T01:05:11;7.22;;;4.38;;
45620;SDS011;31345;51.522;10.702;2022-08-21T01:07:40;6.72;;;4.60;;
45620;SDS011;31345;51.522;10.702;2022-08-21T01:10:08;5.30;;;4.28;;
45620;SDS011;31345;51.522;10.702;2022-08-21T01:12:36;5.88;;;4.60;;
45620;SDS011;31345;51.522;10.702;2022-08-21T01:15:07;7.93;;;4.90;;
45620;SDS011;31345;51.522;10.702;2022-08-21T01:17:36;7.68;;;4.80;;
45620;SDS011;31345;51.522;10.702;2022-08-21T01:20:05;7.90;;;4.63;;
45620;SDS011;31345;51.522;10.702;2022-08-21T01:22:36;5.15;;;4.28;;
45620;SDS011;31345;51.522;10.702;2022-08-21T01:25:05;29.40;;;4.47;;
45620;SDS011;31345;51.522;10.702;2022-08-21T01:27:34;5.97;;;3.75;;
45620;SDS011;31345;51.522;10.702;2022-08-21T01:30:04;8.07;;;3.97;;
45620;SDS011;31345;51.522;10.702;2022-08-21T01:32:38;5.28;;;4.10;;
45620;SDS011;31345;51.522;10.702;2022-08-21T01:35:06;10.88;;;4.25;;
45620;SDS011;31345;51.522;10.702;2022-08-21T01:37:34;7.03;;;4.47;;
45620;SDS011;31345;51.522;10.702;2022-08-21T01:40:04;7.97;;;4.20;;
45620;SDS011;31345;51.522;10.702;2022-08-21T01:42:33;6.13;;;3.55;;
45620;SDS011;31345;51.522;10.702;2022-08-21T01:45:02;7.50;;;4.20;;
45620;SDS011;31345;51.522;10.702;2022-08-21T01:47:30;6.20;;;4.40;;
45620;SDS011;31345;51.522;10.702;2022-08-21T01:49:58;10.98;;;3.63;;
45620;SDS011;31345;51.522;10.702;2022-08-21T01:52:26;19.60;;;4.35;;
45620;SDS011;31345;51.522;10.702;2022-08-21T01:54:56;7.03;;;3.80;;
45620;SDS011;31345;51.522;10.702;2022-08-21T01:57:24;8.52;;;4.25;;
45620;SDS011;31345;51.522;10.702;2022-08-21T01:59:52;6.28;;;3.83;;
45620;SDS011;31345;51.522;10.702;2022-08-21T02:02:20;8.18;;;3.88;;
45620;SDS011;31345;51.522;10.702;2022-08-21T02:04:47;7.63;;;4.00;;
45620;SDS011;31345;51.522;10.702;2022-08-21T02:07:15;4.25;;;3.33;;
45620;SDS011;31345;51.522;10.702;2022-08-21T02:09:42;13.20;;;3.80;;
45620;SDS011;31345;51.522;10.702;2022-08-21T02:12:11;7.85;;;3.40;;
45620;SDS011;31345;51.522;10.702;2022-08-21T02:14:39;6.07;;;3.30;;
45620;SDS011;31345;51.522;10.702;2022-08-21T02:17:06;25.23;;;3.60;;
45620;SDS011;31345;51.522;10.702;2022-08-21T02:19:34;33.70;;;3.50;;
45620;SDS011;31345;51.522;10.702;2022-08-21T02:22:02;5.22;;;2.38;;
45620;SDS011;31345;51.522;10.702;2022-08-21T02:24:31;4.20;;;3.58;;
45620;SDS011;31345;51.522;10.702;2022-08-21T02:26:59;6.18;;;3.55;;
45620;SDS011;31345;51.522;10.702;2022-08-21T02:29:28;7.55;;;4.72;;
45620;SDS011;31345;51.522;10.702;2022-08-21T02:31:55;10.25;;;4.35;;
45620;SDS011;31345;51.522;10.702;2022-08-21T02:34:23;5.45;;;3.80;;
45620;SDS011;31345;51.522;10.702;2022-08-21T02:36:51;8.02;;;4.22;;
45620;SDS011;31345;51.522;10.702;2022-08-21T02:39:18;5.18;;;3.63;;
45620;SDS011;31345;51.522;10.702;2022-08-21T02:41:47;33.88;;;3.33;;
45620;SDS011;31345;51.522;10.702;2022-08-21T02:44:14;51.03;;;4.88;;
45620;SDS011;31345;51.522;10.702;2022-08-21T02:46:43;4.38;;;2.83;;
45620;SDS011;31345;51.522;10.702;2022-08-21T02:49:11;9.82;;;3.50;;
45620;SDS011;31345;51.522;10.702;2022-08-21T02:51:38;5.22;;;2.83;;
45620;SDS011;31345;51.522;10.702;2022-08-21T02:54:06;142.73;;;8.25;;
45620;SDS011;31345;51.522;10.702;2022-08-21T02:56:33;91.25;;;6.35;;
45620;SDS011;31345;51.522;10.702;2022-08-21T02:59:01;4.40;;;3.30;;
45620;SDS011;31345;51.522;10.702;2022-08-21T03:01:29;5.68;;;2.70;;
45620;SDS011;31345;51.522;10.702;2022-08-21T03:03:59;7.22;;;4.05;;
45620;SDS011;31345;51.522;10.702;2022-08-21T03:06:27;5.15;;;4.25;;
45620;SDS011;31345;51.522;10.702;2022-08-21T03:08:55;6.03;;;3.58;;
45620;SDS011;31345;51.522;10.702;2022-08-21T03:11:23;5.88;;;4.22;;
45620;SDS011;31345;51.522;10.702;2022-08-21T03:13:51;10.43;;;4.72;;
45620;SDS011;31345;51.522;10.702;2022-08-21T03:16:19;7.50;;;4.55;;
45620;SDS011;31345;51.522;10.702;2022-08-21T03:18:46;9.27;;;4.80;;
45620;SDS011;31345;51.522;10.702;2022-08-21T03:21:15;4.47;;;3.60;;
45620;SDS011;31345;51.522;10.702;2022-08-21T03:23:44;5.88;;;4.30;;
45620;SDS011;31345;51.522;10.702;2022-08-21T03:26:12;7.32;;;4.22;;
45620;SDS011;31345;51.522;10.702;2022-08-21T03:28:40;5.40;;;4.00;;
45620;SDS011;31345;51.522;10.702;2022-08-21T03:31:07;4.97;;;3.63;;
45620;SDS011;31345;51.522;10.702;2022-08-21T03:33:35;5.60;;;3.80;;
45620;SDS011;31345;51.522;10.702;2022-08-21T03:36:03;9.65;;;4.00;;
45620;SDS011;31345;51.522;10.702;2022-08-21T03:38:35;4.80;;;4.30;;
45620;SDS011;31345;51.522;10.702;2022-08-21T03:41:04;7.60;;;4.30;;
45620;SDS011;31345;51.522;10.702;2022-08-21T03:43:33;19.88;;;4.80;;
45620;SDS011;31345;51.522;10.702;2022-08-21T03:46:01;13.40;;;3.47;;
45620;SDS011;31345;51.522;10.702;2022-08-21T03:48:31;14.27;;;3.55;;
45620;SDS011;31345;51.522;10.702;2022-08-21T03:50:59;25.30;;;5.13;;
45620;SDS011;31345;51.522;10.702;2022-08-21T03:53:27;5.60;;;3.35;;
45620;SDS011;31345;51.522;10.702;2022-08-21T03:55:57;5.45;;;3.97;;
45620;SDS011;31345;51.522;10.702;2022-08-21T03:58:25;7.45;;;3.97;;
45620;SDS011;31345;51.522;10.702;2022-08-21T04:00:55;6.82;;;3.65;;
45620;SDS011;31345;51.522;10.702;2022-08-21T04:03:24;5.68;;;3.90;;
45620;SDS011;31345;51.522;10.702;2022-08-21T04:05:53;6.43;;;3.50;;
45620;SDS011;31345;51.522;10.702;2022-08-21T04:08:20;6.25;;;3.42;;
45620;SDS011;31345;51.522;10.702;2022-08-21T04:10:48;52.45;;;5.88;;
45620;SDS011;31345;51.522;10.702;2022-08-21T04:13:20;8.43;;;4.57;;
45620;SDS011;31345;51.522;10.702;2022-08-21T04:15:49;8.32;;;4.57;;
45620;SDS011;31345;51.522;10.702;2022-08-21T04:18:16;5.75;;;4.43;;
45620;SDS011;31345;51.522;10.702;2022-08-21T04:20:44;4.95;;;4.45;;
45620;SDS011;31345;51.522;10.702;2022-08-21T04:23:15;103.95;;;8.95;;
45620;SDS011;31345;51.522;10.702;2022-08-21T04:25:42;7.22;;;3.80;;
45620;SDS011;31345;51.522;10.702;2022-08-21T04:28:10;4.72;;;3.65;;
45620;SDS011;31345;51.522;10.702;2022-08-21T04:30:39;5.15;;;3.75;;
45620;SDS011;31345;51.522;10.702;2022-08-21T04:33:06;8.25;;;3.97;;
45620;SDS011;31345;51.522;10.702;2022-08-21T04:35:34;4.70;;;3.75;;
45620;SDS011;31345;51.522;10.702;2022-08-21T04:38:02;7.10;;;4.28;;
45620;SDS011;31345;51.522;10.702;2022-08-21T04:40:30;5.20;;;3.90;;
45620;SDS011;31345;51.522;10.702;2022-08-21T04:43:00;8.93;;;4.00;;
45620;SDS011;31345;51.522;10.702;2022-08-21T04:45:31;6.20;;;4.68;;
45620;SDS011;31345;51.522;10.702;2022-08-21T04:48:02;6.75;;;3.42;;
45620;SDS011;31345;51.522;10.702;2022-08-21T04:50:35;7.53;;;4.00;;
45620;SDS011;31345;51.522;10.702;2022-08-21T04:53:07;7.50;;;4.55;;
45620;SDS011;31345;51.522;10.702;2022-08-21T04:55:44;6.32;;;3.70;;
45620;SDS011;31345;51.522;10.702;2022-08-21T04:58:15;6.40;;;3.83;;
45620;SDS011;31345;51.522;10.702;2022-08-21T05:00:46;11.43;;;4.10;;
45620;SDS011;31345;51.522;10.702;2022-08-21T05:03:16;6.13;;;4.05;;
45620;SDS011;31345;51.522;10.702;2022-08-21T05:05:44;6.78;;;3.80;;
45620;SDS011;31345;51.522;10.702;2022-08-21T05:08:14;6.75;;;4.53;;
45620;SDS011;31345;51.522;10.702;2022-08-21T05:10:45;8.20;;;4.53;;
45620;SDS011;31345;51.522;10.702;2022-08-21T05:13:13;6.75;;;4.57;;
45620;SDS011;31345;51.522;10.702;2022-08-21T05:15:41;6.00;;;4.57;;
45620;SDS011;31345;51.522;10.702;2022-08-21T05:18:08;8.93;;;4.35;;
45620;SDS011;31345;51.522;10.702;2022-08-21T05:20:38;7.38;;;4.38;;
45620;SDS011;31345;51.522;10.702;2022-08-21T05:23:06;10.80;;;5.07;;
45620;SDS011;31345;51.522;10.702;2022-08-21T05:25:34;9.20;;;4.93;;
45620;SDS011;31345;51.522;10.702;2022-08-21T05:28:02;6.65;;;4.55;;
45620;SDS011;31345;51.522;10.702;2022-08-21T05:30:31;8.82;;;4.40;;
45620;SDS011;31345;51.522;10.702;2022-08-21T05:33:00;6.28;;;4.75;;
45620;SDS011;31345;51.522;10.702;2022-08-21T05:35:29;5.43;;;4.57;;
45620;SDS011;31345;51.522;10.702;2022-08-21T05:37:59;4.57;;;4.10;;
45620;SDS011;31345;51.522;10.702;2022-08-21T05:40:27;5.32;;;4.53;;
45620;SDS011;31345;51.522;10.702;2022-08-21T05:42:55;6.10;;;4.57;;
45620;SDS011;31345;51.522;10.702;2022-08-21T05:45:23;7.57;;;4.70;;
45620;SDS011;31345;51.522;10.702;2022-08-21T05:47:52;8.07;;;4.53;;
45620;SDS011;31345;51.522;10.702;2022-08-21T05:50:20;9.55;;;4.97;;
45620;SDS011;31345;51.522;10.702;2022-08-21T05:52:48;6.45;;;4.32;;
45620;SDS011;31345;51.522;10.702;2022-08-21T05:55:16;7.53;;;4.53;;
45620;SDS011;31345;51.522;10.702;2022-08-21T05:57:44;6.93;;;4.50;;
45620;SDS011;31345;51.522;10.702;2022-08-21T06:00:12;7.32;;;4.53;;
45620;SDS011;31345;51.522;10.702;2022-08-21T06:02:40;6.78;;;4.53;;
45620;SDS011;31345;51.522;10.702;2022-08-21T06:05:08;5.95;;;4.40;;
45620;SDS011;31345;51.522;10.702;2022-08-21T06:07:36;7.03;;;5.75;;
45620;SDS011;31345;51.522;10.702;2022-08-21T06:10:03;8.90;;;5.50;;
45620;SDS011;31345;51.522;10.702;2022-08-21T06:12:33;9.65;;;5.47;;
45620;SDS011;31345;51.522;10.702;2022-08-21T06:15:00;6.82;;;4.53;;
45620;SDS011;31345;51.522;10.702;2022-08-21T06:17:28;6.35;;;4.95;;
45620;SDS011;31345;51.522;10.702;2022-08-21T06:19:56;5.25;;;4.75;;
45620;SDS011;31345;51.522;10.702;2022-08-21T06:22:23;5.80;;;4.82;;
45620;SDS011;31345;51.522;10.702;2022-08-21T06:24:51;5.85;;;4.38;;
45620;SDS011;31345;51.522;10.702;2022-08-21T06:27:18;7.85;;;5.20;;
45620;SDS011;31345;51.522;10.702;2022-08-21T06:29:47;6.85;;;4.57;;
45620;SDS011;31345;51.522;10.702;2022-08-21T06:32:15;7.78;;;4.85;;
45620;SDS011;31345;51.522;10.702;2022-08-21T06:34:42;6.30;;;4.78;;
45620;SDS011;31345;51.522;10.702;2022-08-21T06:37:10;5.78;;;4.50;;
45620;SDS011;31345;51.522;10.702;2022-08-21T06:39:37;6.18;;;4.53;;
45620;SDS011;31345;51.522;10.702;2022-08-21T06:42:05;5.68;;;4.90;;
45620;SDS011;31345;51.522;10.702;2022-08-21T06:44:33;7.70;;;4.93;;
45620;SDS011;31345;51.522;10.702;2022-08-21T06:47:02;7.55;;;4.82;;
45620;SDS011;31345;51.522;10.702;2022-08-21T06:49:30;7.30;;;4.63;;
45620;SDS011;31345;51.522;10.702;2022-08-21T06:51:57;5.13;;;4.43;;
45620;SDS011;31345;51.522;10.702;2022-08-21T06:54:25;5.10;;;4.00;;
45620;SDS011;31345;51.522;10.702;2022-08-21T06:56:53;6.00;;;4.30;;
45620;SDS011;31345;51.522;10.702;2022-08-21T06:59:20;5.88;;;4.13;;
45620;SDS011;31345;51.522;10.702;2022-08-21T07:01:48;5.47;;;4.43;;
45620;SDS011;31345;51.522;10.702;2022-08-21T07:04:23;6.07;;;4.20;;
45620;SDS011;31345;51.522;10.702;2022-08-21T07:06:51;5.43;;;4.45;;
45620;SDS011;31345;51.522;10.702;2022-08-21T07:09:18;6.75;;;3.78;;
45620;SDS011;31345;51.522;10.702;2022-08-21T07:11:46;5.43;;;3.60;;
45620;SDS011;31345;51.522;10.702;2022-08-21T07:14:17;6.05;;;3.28;;
45620;SDS011;31345;51.522;10.702;2022-08-21T07:16:45;6.80;;;4.45;;
45620;SDS011;31345;51.522;10.702;2022-08-21T07:19:13;4.75;;;4.03;;
45620;SDS011;31345;51.522;10.702;2022-08-21T07:21:42;5.35;;;3.17;;
45620;SDS011;31345;51.522;10.702;2022-08-21T07:24:09;6.15;;;3.75;;
45620;SDS011;31345;51.522;10.702;2022-08-21T07:26:37;6.88;;;3.50;;
45620;SDS011;31345;51.522;10.702;2022-08-21T07:29:05;7.93;;;3.65;;
45620;SDS011;31345;51.522;10.702;2022-08-21T07:31:33;6.20;;;3.90;;
45620;SDS011;31345;51.522;10.702;2022-08-21T07:34:00;4.57;;;3.58;;
45620;SDS011;31345;51.522;10.702;2022-08-21T07:36:28;6.15;;;3.50;;
45620;SDS011;31345;51.522;10.702;2022-08-21T07:38:57;6.38;;;3.50;;
45620;SDS011;31345;51.522;10.702;2022-08-21T07:41:25;4.13;;;3.35;;
45620;SDS011;31345;51.522;10.702;2022-08-21T07:43:55;6.93;;;3.03;;
45620;SDS011;31345;51.522;10.702;2022-08-21T07:46:23;6.03;;;3.53;;
45620;SDS011;31345;51.522;10.702;2022-08-21T07:48:51;4.55;;;3.42;;
45620;SDS011;31345;51.522;10.702;2022-08-21T07:51:20;6.28;;;3.13;;
45620;SDS011;31345;51.522;10.702;2022-08-21T07:53:51;7.32;;;3.45;;
45620;SDS011;31345;51.522;10.702;2022-08-21T07:56:22;5.75;;;3.88;;
45620;SDS011;31345;51.522;10.702;2022-08-21T07:58:49;4.82;;;3.58;;
45620;SDS011;31345;51.522;10.702;2022-08-21T08:01:17;7.40;;;3.80;;
45620;SDS011;31345;51.522;10.702;2022-08-21T08:03:45;6.47;;;3.28;;
45620;SDS011;31345;51.522;10.702;2022-08-21T08:06:13;6.40;;;3.63;;
45620;SDS011;31345;51.522;10.702;2022-08-21T08:08:44;5.05;;;2.55;;
45620;SDS011;31345;51.522;10.702;2022-08-21T08:11:12;4.28;;;2.33;;
45620;SDS011;31345;51.522;10.702;2022-08-21T08:13:43;6.47;;;2.70;;
45620;SDS011;31345;51.522;10.702;2022-08-21T08:16:12;5.20;;;2.28;;
45620;SDS011;31345;51.522;10.702;2022-08-21T08:18:41;7.50;;;2.70;;
45620;SDS011;31345;51.522;10.702;2022-08-21T08:21:08;12.23;;;2.47;;
45620;SDS011;31345;51.522;10.702;2022-08-21T08:23:37;4.45;;;2.33;;
45620;SDS011;31345;51.522;10.702;2022-08-21T08:26:05;4.85;;;2.38;;
45620;SDS011;31345;51.522;10.702;2022-08-21T08:28:33;4.35;;;2.20;;
45620;SDS011;31345;51.522;10.702;2022-08-21T08:31:02;4.78;;;2.05;;
45620;SDS011;31345;51.522;10.702;2022-08-21T08:33:29;4.97;;;2.20;;
45620;SDS011;31345;51.522;10.702;2022-08-21T08:35:57;3.90;;;2.15;;
45620;SDS011;31345;51.522;10.702;2022-08-21T08:38:25;4.35;;;1.70;;
45620;SDS011;31345;51.522;10.702;2022-08-21T08:40:55;5.65;;;2.30;;
45620;SDS011;31345;51.522;10.702;2022-08-21T08:43:28;3.88;;;1.75;;
45620;SDS011;31345;51.522;10.702;2022-08-21T08:46:01;8.35;;;2.05;;
45620;SDS011;31345;51.522;10.702;2022-08-21T08:48:41;7.72;;;1.90;;
45620;SDS011;31345;51.522;10.702;2022-08-21T08:51:16;6.43;;;2.00;;
45620;SDS011;31345;51.522;10.702;2022-08-21T08:53:49;6.97;;;1.58;;
45620;SDS011;31345;51.522;10.702;2022-08-21T08:56:21;5.78;;;1.88;;
45620;SDS011;31345;51.522;10.702;2022-08-21T08:59:00;7.38;;;1.80;;
45620;SDS011;31345;51.522;10.702;2022-08-21T09:01:35;7.35;;;2.13;;
45620;SDS011;31345;51.522;10.702;2022-08-21T09:04:03;5.22;;;2.05;;
45620;SDS011;31345;51.522;10.702;2022-08-21T09:06:36;7.50;;;2.33;;
45620;SDS011;31345;51.522;10.702;2022-08-21T09:09:16;6.15;;;2.00;;
45620;SDS011;31345;51.522;10.702;2022-08-21T09:11:59;4.13;;;2.38;;
45620;SDS011;31345;51.522;10.702;2022-08-21T09:14:32;9.50;;;2.70;;
45620;SDS011;31345;51.522;10.702;2022-08-21T09:17:16;3.45;;;2.20;;
45620;SDS011;31345;51.522;10.702;2022-08-21T09:20:03;4.63;;;2.30;;
45620;SDS011;31345;51.522;10.702;2022-08-21T09:22:42;5.00;;;2.67;;
45620;SDS011;31345;51.522;10.702;2022-08-21T09:25:17;5.78;;;2.70;;
45620;SDS011;31345;51.522;10.702;2022-08-21T09:27:49;4.60;;;2.67;;
45620;SDS011;31345;51.522;10.702;2022-08-21T09:30:17;4.10;;;2.60;;
45620;SDS011;31345;51.522;10.702;2022-08-21T09:32:51;7.20;;;2.95;;
45620;SDS011;31345;51.522;10.702;2022-08-21T09:35:20;7.65;;;2.78;;
45620;SDS011;31345;51.522;10.702;2022-08-21T09:37:52;4.70;;;2.50;;
45620;SDS011;31345;51.522;10.702;2022-08-21T09:40:29;6.60;;;2.70;;
45620;SDS011;31345;51.522;10.702;2022-08-21T09:43:01;3.92;;;2.35;;
45620;SDS011;31345;51.522;10.702;2022-08-21T09:45:31;8.15;;;2.65;;
45620;SDS011;31345;51.522;10.702;2022-08-21T09:48:12;6.70;;;2.35;;
45620;SDS011;31345;51.522;10.702;2022-08-21T09:50:41;6.72;;;2.92;;
45620;SDS011;31345;51.522;10.702;2022-08-21T09:53:16;12.50;;;3.30;;
45620;SDS011;31345;51.522;10.702;2022-08-21T09:55:47;8.88;;;2.70;;
45620;SDS011;31345;51.522;10.702;2022-08-21T09:58:36;11.15;;;3.05;;
45620;SDS011;31345;51.522;10.702;2022-08-21T10:01:05;6.53;;;2.88;;
45620;SDS011;31345;51.522;10.702;2022-08-21T10:03:35;9.02;;;2.63;;
45620;SDS011;31345;51.522;10.702;2022-08-21T10:06:04;7.95;;;2.90;;
45620;SDS011;31345;51.522;10.702;2022-08-21T10:08:35;5.93;;;3.10;;
45620;SDS011;31345;51.522;10.702;2022-08-21T10:11:05;6.45;;;2.83;;
45620;SDS011;31345;51.522;10.702;2022-08-21T10:13:39;6.60;;;2.80;;
45620;SDS011;31345;51.522;10.702;2022-08-21T10:16:20;6.88;;;3.00;;
45620;SDS011;31345;51.522;10.702;2022-08-21T10:19:11;7.20;;;3.22;;
45620;SDS011;31345;51.522;10.702;2022-08-21T10:21:59;7.75;;;2.80;;
45620;SDS011;31345;51.522;10.702;2022-08-21T10:24:37;7.78;;;3.08;;
45620;SDS011;31345;51.522;10.702;2022-08-21T10:27:14;6.20;;;2.70;;
45620;SDS011;31345;51.522;10.702;2022-08-21T10:29:51;7.60;;;3.22;;
45620;SDS011;31345;51.522;10.702;2022-08-21T10:32:31;7.32;;;3.40;;
45620;SDS011;31345;51.522;10.702;2022-08-21T10:35:17;5.35;;;2.83;;
45620;SDS011;31345;51.522;10.702;2022-08-21T10:37:55;8.35;;;3.47;;
45620;SDS011;31345;51.522;10.702;2022-08-21T10:40:40;7.03;;;3.30;;
45620;SDS011;31345;51.522;10.702;2022-08-21T10:43:16;6.25;;;3.25;;
45620;SDS011;31345;51.522;10.702;2022-08-21T10:45:51;6.95;;;3.30;;
45620;SDS011;31345;51.522;10.702;2022-08-21T10:48:27;9.73;;;3.42;;
45620;SDS011;31345;51.522;10.702;2022-08-21T10:51:05;9.48;;;4.18;;
45620;SDS011;31345;51.522;10.702;2022-08-21T10:56:28;8.65;;;3.20;;
45620;SDS011;31345;51.522;10.702;2022-08-21T11:01:53;8.02;;;3.45;;
45620;SDS011;31345;51.522;10.702;2022-08-21T11:04:24;6.90;;;3.50;;
45620;SDS011;31345;51.522;10.702;2022-08-21T11:06:59;7.30;;;3.63;;
45620;SDS011;31345;51.522;10.702;2022-08-21T11:09:30;9.35;;;4.07;;
45620;SDS011;31345;51.522;10.702;2022-08-21T11:11:58;10.57;;;3.33;;
45620;SDS011;31345;51.522;10.702;2022-08-21T11:14:34;8.60;;;3.30;;
45620;SDS011;31345;51.522;10.702;2022-08-21T11:17:14;9.20;;;3.40;;
45620;SDS011;31345;51.522;10.702;2022-08-21T11:19:48;10.35;;;3.63;;
45620;SDS011;31345;51.522;10.702;2022-08-21T11:22:22;9.18;;;3.53;;
45620;SDS011;31345;51.522;10.702;2022-08-21T11:24:56;8.20;;;3.40;;
45620;SDS011;31345;51.522;10.702;2022-08-21T11:27:32;8.82;;;3.58;;
45620;SDS011;31345;51.522;10.702;2022-08-21T11:30:06;9.80;;;3.40;;
45620;SDS011;31345;51.522;10.702;2022-08-21T11:32:39;8.68;;;3.13;;
45620;SDS011;31345;51.522;10.702;2022-08-21T11:35:26;9.93;;;3.35;;
45620;SDS011;31345;51.522;10.702;2022-08-21T11:38:08;6.05;;;3.42;;
45620;SDS011;31345;51.522;10.702;2022-08-21T11:41:02;6.13;;;3.10;;
45620;SDS011;31345;51.522;10.702;2022-08-21T11:43:38;7.55;;;3.15;;
45620;SDS011;31345;51.522;10.702;2022-08-21T11:46:11;7.72;;;3.70;;
45620;SDS011;31345;51.522;10.702;2022-08-21T11:48:48;9.07;;;3.38;;
45620;SDS011;31345;51.522;10.702;2022-08-21T11:51:27;9.30;;;3.70;;
45620;SDS011;31345;51.522;10.702;2022-08-21T11:54:03;6.57;;;3.30;;
45620;SDS011;31345;51.522;10.702;2022-08-21T11:56:36;7.05;;;3.22;;
45620;SDS011;31345;51.522;10.702;2022-08-21T11:59:10;11.57;;;3.75;;
45620;SDS011;31345;51.522;10.702;2022-08-21T12:01:50;8.68;;;3.50;;
45620;SDS011;31345;51.522;10.702;2022-08-21T12:04:22;6.93;;;4.00;;
45620;SDS011;31345;51.522;10.702;2022-08-21T12:06:54;8.70;;;3.97;;
45620;SDS011;31345;51.522;10.702;2022-08-21T12:09:31;6.50;;;3.67;;
45620;SDS011;31345;51.522;10.702;2022-08-21T12:12:03;6.20;;;3.65;;
45620;SDS011;31345;51.522;10.702;2022-08-21T12:14:40;7.07;;;3.88;;
45620;SDS011;31345;51.522;10.702;2022-08-21T12:17:17;10.93;;;4.07;;
45620;SDS011;31345;51.522;10.702;2022-08-21T12:19:57;11.57;;;4.15;;
45620;SDS011;31345;51.522;10.702;2022-08-21T12:22:35;8.70;;;4.03;;
45620;SDS011;31345;51.522;10.702;2022-08-21T12:25:07;6.35;;;3.45;;
45620;SDS011;31345;51.522;10.702;2022-08-21T12:27:41;7.50;;;3.53;;
45620;SDS011;31345;51.522;10.702;2022-08-21T12:30:20;9.30;;;3.60;;
45620;SDS011;31345;51.522;10.702;2022-08-21T12:32:55;8.27;;;3.85;;
45620;SDS011;31345;51.522;10.702;2022-08-21T12:35:25;8.63;;;3.22;;
45620;SDS011;31345;51.522;10.702;2022-08-21T12:37:59;7.28;;;3.03;;
45620;SDS011;31345;51.522;10.702;2022-08-21T12:40:39;9.55;;;3.00;;
45620;SDS011;31345;51.522;10.702;2022-08-21T12:43:11;12.43;;;3.35;;
45620;SDS011;31345;51.522;10.702;2022-08-21T12:45:43;5.88;;;3.47;;
45620;SDS011;31345;51.522;10.702;2022-08-21T12:48:14;5.33;;;2.90;;
45620;SDS011;31345;51.522;10.702;2022-08-21T12:50:48;7.72;;;3.03;;
45620;SDS011;31345;51.522;10.702;2022-08-21T12:53:21;7.72;;;3.08;;
45620;SDS011;31345;51.522;10.702;2022-08-21T12:55:55;9.85;;;3.92;;
45620;SDS011;31345;51.522;10.702;2022-08-21T12:58:27;7.07;;;2.83;;
45620;SDS011;31345;51.522;10.702;2022-08-21T13:00:56;4.75;;;2.50;;
45620;SDS011;31345;51.522;10.702;2022-08-21T13:03:26;6.35;;;2.40;;
45620;SDS011;31345;51.522;10.702;2022-08-21T13:05:54;5.85;;;2.78;;
45620;SDS011;31345;51.522;10.702;2022-08-21T13:08:22;5.35;;;2.53;;
45620;SDS011;31345;51.522;10.702;2022-08-21T13:10:58;6.45;;;2.28;;
45620;SDS011;31345;51.522;10.702;2022-08-21T13:13:28;4.97;;;2.70;;
45620;SDS011;31345;51.522;10.702;2022-08-21T13:15:56;7.45;;;2.95;;
45620;SDS011;31345;51.522;10.702;2022-08-21T13:18:28;5.63;;;2.83;;
45620;SDS011;31345;51.522;10.702;2022-08-21T13:23:32;3.70;;;1.90;;
45620;SDS011;31345;51.522;10.702;2022-08-21T13:26:02;6.32;;;2.33;;
45620;SDS011;31345;51.522;10.702;2022-08-21T13:28:39;6.10;;;2.60;;
45620;SDS011;31345;51.522;10.702;2022-08-21T13:31:08;6.47;;;2.58;;
45620;SDS011;31345;51.522;10.702;2022-08-21T13:33:37;5.97;;;2.70;;
45620;SDS011;31345;51.522;10.702;2022-08-21T13:36:09;4.95;;;2.58;;
45620;SDS011;31345;51.522;10.702;2022-08-21T13:38:39;6.22;;;2.85;;
45620;SDS011;31345;51.522;10.702;2022-08-21T13:41:10;7.55;;;2.67;;
45620;SDS011;31345;51.522;10.702;2022-08-21T13:43:48;6.32;;;2.67;;
45620;SDS011;31345;51.522;10.702;2022-08-21T13:46:17;5.78;;;2.50;;
45620;SDS011;31345;51.522;10.702;2022-08-21T13:48:49;6.53;;;2.72;;
45620;SDS011;31345;51.522;10.702;2022-08-21T13:51:17;5.20;;;2.60;;
45620;SDS011;31345;51.522;10.702;2022-08-21T13:53:47;6.90;;;2.35;;
45620;SDS011;31345;51.522;10.702;2022-08-21T13:56:24;4.63;;;2.28;;
45620;SDS011;31345;51.522;10.702;2022-08-21T13:58:54;8.50;;;3.00;;
45620;SDS011;31345;51.522;10.702;2022-08-21T14:01:24;5.95;;;2.40;;
45620;SDS011;31345;51.522;10.702;2022-08-21T14:06:25;5.57;;;2.70;;
45620;SDS011;31345;51.522;10.702;2022-08-21T14:08:56;6.03;;;2.67;;
45620;SDS011;31345;51.522;10.702;2022-08-21T14:11:28;5.03;;;2.70;;
45620;SDS011;31345;51.522;10.702;2022-08-21T14:14:02;5.43;;;2.33;;
45620;SDS011;31345;51.522;10.702;2022-08-21T14:16:41;7.53;;;2.53;;
45620;SDS011;31345;51.522;10.702;2022-08-21T14:19:12;6.22;;;2.60;;
45620;SDS011;31345;51.522;10.702;2022-08-21T14:21:47;3.78;;;2.30;;
45620;SDS011;31345;51.522;10.702;2022-08-21T14:24:24;4.75;;;2.30;;
45620;SDS011;31345;51.522;10.702;2022-08-21T14:26:55;4.07;;;1.90;;
45620;SDS011;31345;51.522;10.702;2022-08-21T14:29:25;4.18;;;1.85;;
45620;SDS011;31345;51.522;10.702;2022-08-21T14:31:56;3.65;;;1.67;;
45620;SDS011;31345;51.522;10.702;2022-08-21T14:34:26;4.78;;;2.08;;
45620;SDS011;31345;51.522;10.702;2022-08-21T14:36:56;4.35;;;2.03;;
45620;SDS011;31345;51.522;10.702;2022-08-21T14:39:23;4.55;;;1.85;;
45620;SDS011;31345;51.522;10.702;2022-08-21T14:41:51;6.57;;;1.92;;
45620;SDS011;31345;51.522;10.702;2022-08-21T14:44:21;5.70;;;1.50;;
45620;SDS011;31345;51.522;10.702;2022-08-21T14:46:48;5.25;;;1.60;;
45620;SDS011;31345;51.522;10.702;2022-08-21T14:49:16;4.53;;;2.08;;
45620;SDS011;31345;51.522;10.702;2022-08-21T14:51:43;4.32;;;1.83;;
45620;SDS011;31345;51.522;10.702;2022-08-21T14:54:11;5.75;;;2.30;;
45620;SDS011;31345;51.522;10.702;2022-08-21T14:56:38;4.07;;;2.13;;
45620;SDS011;31345;51.522;10.702;2022-08-21T14:59:07;4.00;;;2.05;;
45620;SDS011;31345;51.522;10.702;2022-08-21T15:01:37;6.35;;;2.00;;
45620;SDS011;31345;51.522;10.702;2022-08-21T15:04:06;4.28;;;1.95;;